Time;durP1;ratioP1;P1;durP2;ratioP2;P2;SDS_P1;SDS_P2;PMS_P1;PMS_P2;Temp;Humidity;BMP_temperature;BMP_pressure;BME280_temperature;BME280_humidity;BME280_pressure;Samples;Min_cycle;Max_cycle;Signal;HPM_P1;HPM_P2
2023/04/20 00:00:47;;;;;;;4.80;1.40;;;9.20;45.90;;;;;;5006727;28;20191;-70
2023/04/20 00:03:13;;;;;;;4.53;1.40;;;9.30;44.60;;;;;;5014043;28;20530;-71
2023/04/20 00:05:38;;;;;;;4.70;1.50;;;9.30;44.70;;;;;;5014858;28;20181;-70
2023/04/20 00:08:04;;;;;;;4.40;1.20;;;9.10;45.10;;;;;;5026209;28;20231;-70
2023/04/20 00:10:30;;;;;;;4.43;1.37;;;9.00;45.00;;;;;;5032721;28;20177;-70
2023/04/20 00:12:55;;;;;;;4.60;1.40;;;9.40;45.90;;;;;;5011029;28;20212;-70
2023/04/20 00:15:21;;;;;;;6.97;2.37;;;8.80;46.40;;;;;;5013320;28;20177;-68
2023/04/20 00:17:47;;;;;;;4.53;1.47;;;8.30;48.00;;;;;;5014245;28;20265;-69
2023/04/20 00:20:14;;;;;;;4.68;1.50;;;8.40;48.50;;;;;;5014622;28;20177;-69
2023/04/20 00:22:39;;;;;;;4.50;1.50;;;8.50;49.40;;;;;;5011777;28;20888;-68
2023/04/20 00:25:05;;;;;;;4.60;1.80;;;8.60;47.40;;;;;;5012800;28;20213;-69
2023/04/20 00:27:31;;;;;;;8.73;2.63;;;8.80;46.60;;;;;;5012545;28;20526;-68
2023/04/20 00:29:57;;;;;;;4.60;1.50;;;9.10;44.60;;;;;;5014233;28;20176;-68
2023/04/20 00:32:22;;;;;;;5.63;2.50;;;9.20;44.30;;;;;;4995122;28;20186;-73
2023/04/20 00:34:48;;;;;;;4.60;1.60;;;9.20;43.40;;;;;;5010623;28;20251;-68
2023/04/20 00:37:13;;;;;;;5.47;2.07;;;9.10;44.70;;;;;;5013874;28;20181;-68
2023/04/20 00:39:40;;;;;;;4.20;1.30;;;9.00;44.50;;;;;;5007370;28;20578;-70
2023/04/20 00:42:08;;;;;;;4.20;1.30;;;8.90;45.30;;;;;;5036897;28;20199;-68
2023/04/20 00:44:34;;;;;;;4.15;1.25;;;8.80;44.80;;;;;;5010187;28;20278;-68
2023/04/20 00:47:00;;;;;;;4.13;1.30;;;8.70;44.70;;;;;;5009632;28;20177;-68
2023/04/20 00:49:28;;;;;;;4.20;1.30;;;8.70;44.90;;;;;;5018617;28;20288;-68
2023/04/20 00:51:56;;;;;;;4.00;1.20;;;8.70;44.10;;;;;;5016275;28;20189;-68
2023/04/20 00:54:22;;;;;;;5.57;1.73;;;8.80;43.70;;;;;;5015940;28;20201;-74
2023/04/20 00:56:48;;;;;;;5.17;1.97;;;8.60;44.40;;;;;;5011565;28;20671;-68
2023/04/20 00:59:14;;;;;;;4.30;1.43;;;8.50;45.00;;;;;;5021173;28;20259;-68
2023/04/20 01:01:40;;;;;;;4.55;1.48;;;8.30;45.40;;;;;;5016618;28;20428;-68
2023/04/20 01:04:06;;;;;;;3.97;1.20;;;8.40;45.20;;;;;;5018930;28;20589;-69
2023/04/20 01:06:32;;;;;;;3.90;1.20;;;8.20;45.50;;;;;;5011908;28;20181;-68
2023/04/20 01:08:57;;;;;;;3.90;1.17;;;8.30;45.60;;;;;;5012471;28;20239;-73
2023/04/20 01:11:23;;;;;;;4.60;1.80;;;8.50;44.80;;;;;;5013360;28;20169;-68
2023/04/20 01:13:49;;;;;;;3.80;1.10;;;8.60;44.40;;;;;;5013112;28;20197;-68
2023/04/20 01:16:14;;;;;;;7.90;2.40;;;8.60;44.80;;;;;;5010704;28;20181;-68
2023/04/20 01:18:46;;;;;;;5.90;2.07;;;8.70;43.40;;;;;;5012652;28;20185;-69
2023/04/20 01:21:13;;;;;;;5.82;2.20;;;8.60;43.20;;;;;;5012110;28;20404;-71
2023/04/20 01:23:38;;;;;;;4.10;1.40;;;8.60;43.80;;;;;;4993295;28;20251;-68
2023/04/20 01:26:09;;;;;;;4.00;1.40;;;8.60;43.70;;;;;;4991772;28;20170;-73
2023/04/20 01:28:35;;;;;;;3.70;1.10;;;8.50;43.70;;;;;;5010226;28;20184;-69
2023/04/20 01:31:05;;;;;;;4.23;1.37;;;8.30;45.00;;;;;;5012617;28;20181;-68
2023/04/20 01:33:31;;;;;;;3.88;1.30;;;8.50;43.90;;;;;;5012596;28;20428;-68
2023/04/20 01:35:57;;;;;;;3.67;1.10;;;8.40;43.90;;;;;;5013101;28;20679;-68
2023/04/20 01:38:23;;;;;;;4.00;1.40;;;8.70;45.30;;;;;;5024140;28;20211;-70
2023/04/20 01:40:49;;;;;;;4.88;2.10;;;8.20;44.20;;;;;;5016154;28;20189;-70
2023/04/20 01:43:16;;;;;;;3.90;1.33;;;8.00;44.80;;;;;;5010809;28;20252;-68
2023/04/20 01:45:41;;;;;;;3.80;1.35;;;7.90;45.60;;;;;;4995354;28;20181;-68
2023/04/20 01:48:07;;;;;;;3.70;1.20;;;8.10;45.40;;;;;;5013065;28;20189;-68
2023/04/20 01:50:33;;;;;;;4.37;1.80;;;8.10;44.80;;;;;;5018280;28;20212;-69
2023/04/20 01:52:58;;;;;;;3.90;1.47;;;8.20;44.50;;;;;;5008582;28;20742;-68
2023/04/20 01:55:24;;;;;;;3.60;1.10;;;8.20;44.30;;;;;;5008163;28;20185;-68
2023/04/20 01:57:49;;;;;;;5.20;1.60;;;7.90;44.70;;;;;;5014239;28;20585;-68
2023/04/20 02:00:15;;;;;;;5.70;1.83;;;7.80;45.10;;;;;;5021260;28;20303;-69
2023/04/20 02:02:41;;;;;;;5.50;1.80;;;7.80;45.40;;;;;;5021467;28;20204;-70
2023/04/20 02:05:07;;;;;;;4.13;1.50;;;7.70;45.50;;;;;;5010172;28;20562;-74
2023/04/20 02:07:32;;;;;;;4.15;1.65;;;7.90;44.70;;;;;;5014173;28;20637;-68
2023/04/20 02:09:58;;;;;;;3.80;1.50;;;8.00;44.60;;;;;;5024254;28;20272;-68
2023/04/20 02:12:24;;;;;;;3.60;1.37;;;7.90;44.80;;;;;;5017621;28;20184;-71
2023/04/20 02:14:49;;;;;;;3.47;1.17;;;8.00;44.20;;;;;;4994220;28;20188;-68
2023/04/20 02:17:15;;;;;;;4.80;1.77;;;7.90;44.20;;;;;;5009394;28;20189;-69
2023/04/20 02:19:41;;;;;;;3.60;1.48;;;7.90;45.20;;;;;;5004114;28;20174;-71
2023/04/20 02:22:07;;;;;;;3.53;1.20;;;7.80;44.80;;;;;;5012101;28;20304;-68
2023/04/20 02:24:32;;;;;;;3.60;1.40;;;7.90;45.10;;;;;;5011482;28;20280;-68
2023/04/20 02:26:58;;;;;;;3.50;1.30;;;8.00;44.10;;;;;;5008006;28;20188;-69
2023/04/20 02:29:24;;;;;;;3.50;1.30;;;8.10;44.10;;;;;;5007420;28;20177;-71
2023/04/20 02:31:49;;;;;;;4.15;1.73;;;8.40;43.70;;;;;;5011956;28;20653;-70
2023/04/20 02:34:15;;;;;;;3.53;1.40;;;7.90;44.30;;;;;;5011693;28;20296;-68
2023/04/20 02:36:41;;;;;;;3.50;1.30;;;8.00;43.50;;;;;;5011907;28;20247;-68
2023/04/20 02:39:06;;;;;;;4.97;1.90;;;7.90;43.90;;;;;;5008258;28;20188;-71
2023/04/20 02:41:32;;;;;;;3.50;1.40;;;7.60;45.10;;;;;;5020464;28;20188;-69
2023/04/20 02:43:57;;;;;;;3.80;1.60;;;7.60;45.00;;;;;;5017472;28;20216;-67
2023/04/20 02:46:23;;;;;;;3.90;1.53;;;7.60;45.10;;;;;;5016215;28;20532;-68
2023/04/20 02:48:49;;;;;;;3.80;1.50;;;7.50;45.00;;;;;;5009698;28;20187;-68
2023/04/20 02:51:14;;;;;;;3.40;1.20;;;7.50;45.20;;;;;;5014591;28;20323;-68
2023/04/20 02:53:40;;;;;;;3.33;1.30;;;7.70;44.10;;;;;;5021386;28;20537;-69
2023/04/20 02:56:06;;;;;;;3.70;1.47;;;7.70;43.70;;;;;;5022654;28;20183;-67
2023/04/20 02:58:31;;;;;;;3.60;1.50;;;8.00;44.10;;;;;;5012430;28;20192;-68
2023/04/20 03:01:01;;;;;;;5.53;1.77;;;7.50;44.10;;;;;;5010322;28;20259;-68
2023/04/20 03:03:27;;;;;;;3.60;1.42;;;7.50;44.80;;;;;;5025648;28;20219;-72
2023/04/20 03:05:54;;;;;;;3.25;1.20;;;7.50;44.70;;;;;;5016013;28;20202;-70
2023/04/20 03:08:20;;;;;;;3.28;1.20;;;7.60;44.40;;;;;;5021924;28;20176;-70
2023/04/20 03:10:45;;;;;;;4.80;2.20;;;7.40;44.30;;;;;;5007545;28;20185;-70
2023/04/20 03:13:11;;;;;;;3.30;1.20;;;7.40;45.60;;;;;;5021037;28;20455;-70
2023/04/20 03:15:37;;;;;;;3.37;1.37;;;7.40;45.20;;;;;;5022040;28;20181;-70
2023/04/20 03:18:03;;;;;;;3.50;1.50;;;7.50;44.80;;;;;;5021531;28;20182;-70
2023/04/20 03:20:29;;;;;;;4.03;1.85;;;7.50;44.70;;;;;;5018503;28;20185;-70
2023/04/20 03:22:55;;;;;;;3.25;1.25;;;7.60;44.20;;;;;;5026843;28;20215;-70
2023/04/20 03:25:21;;;;;;;3.30;1.30;;;7.50;44.80;;;;;;5013919;28;20747;-70
2023/04/20 03:27:47;;;;;;;6.22;1.63;;;7.50;45.50;;;;;;5027114;28;20180;-69
2023/04/20 03:30:13;;;;;;;3.90;1.90;;;7.60;45.50;;;;;;5021895;28;20276;-70
2023/04/20 03:32:39;;;;;;;7.38;2.33;;;7.60;45.00;;;;;;5009566;28;20197;-70
2023/04/20 03:35:06;;;;;;;4.78;1.50;;;7.70;45.40;;;;;;5028567;28;20699;-69
2023/04/20 03:37:31;;;;;;;3.40;1.38;;;7.80;45.50;;;;;;5023958;28;20258;-70
2023/04/20 03:39:57;;;;;;;3.97;1.63;;;7.80;45.80;;;;;;5021794;28;20232;-70
2023/04/20 03:42:22;;;;;;;3.80;1.50;;;7.70;45.60;;;;;;5018017;28;20193;-70
2023/04/20 03:44:48;;;;;;;3.40;1.30;;;7.80;45.90;;;;;;5021822;28;20204;-70
2023/04/20 03:47:14;;;;;;;3.27;1.17;;;7.70;45.40;;;;;;5030447;28;20169;-70
2023/04/20 03:49:39;;;;;;;3.30;1.30;;;7.60;46.80;;;;;;5029185;28;20182;-69
2023/04/20 03:52:06;;;;;;;3.73;1.57;;;8.00;45.00;;;;;;5021067;28;20270;-70
2023/04/20 03:54:31;;;;;;;3.28;1.25;;;8.00;44.70;;;;;;5022237;28;20193;-70
2023/04/20 03:56:57;;;;;;;3.27;1.23;;;8.00;43.40;;;;;;5020438;28;21181;-70
2023/04/20 03:59:23;;;;;;;4.13;2.03;;;8.10;44.30;;;;;;5021981;28;20182;-70
2023/04/20 04:01:48;;;;;;;3.57;1.53;;;8.20;43.70;;;;;;5031229;28;20230;-70
2023/04/20 04:04:14;;;;;;;3.30;1.30;;;8.20;44.30;;;;;;5026287;28;20218;-70
2023/04/20 04:06:40;;;;;;;3.40;1.43;;;8.20;45.00;;;;;;5016765;28;20238;-69
2023/04/20 04:09:05;;;;;;;4.17;1.83;;;8.10;45.50;;;;;;5016528;28;20181;-70
2023/04/20 04:11:31;;;;;;;4.07;1.47;;;8.10;44.80;;;;;;5027062;28;20186;-70
2023/04/20 04:13:58;;;;;;;3.57;1.53;;;8.10;44.80;;;;;;5023582;28;20211;-70
2023/04/20 04:16:24;;;;;;;3.30;1.20;;;8.10;44.50;;;;;;5020584;28;20173;-71
2023/04/20 04:18:49;;;;;;;3.40;1.33;;;8.20;44.20;;;;;;5014678;28;20602;-70
2023/04/20 04:21:15;;;;;;;3.50;1.50;;;8.30;44.30;;;;;;5031910;28;20212;-70
2023/04/20 04:23:41;;;;;;;4.60;1.93;;;8.30;44.10;;;;;;5012564;28;20295;-70
2023/04/20 04:26:07;;;;;;;3.50;1.50;;;8.30;44.30;;;;;;5013316;28;20291;-69
2023/04/20 04:28:33;;;;;;;5.30;2.28;;;8.40;44.00;;;;;;5010494;28;20712;-70
2023/04/20 04:31:04;;;;;;;3.40;1.40;;;8.30;43.70;;;;;;5012120;28;20173;-70
2023/04/20 04:33:33;;;;;;;3.35;1.20;;;8.10;44.10;;;;;;5013808;28;20201;-70
2023/04/20 04:36:00;;;;;;;3.30;1.20;;;8.10;43.60;;;;;;5014151;28;20177;-70
2023/04/20 04:38:26;;;;;;;3.40;1.40;;;8.00;43.20;;;;;;5013740;28;20699;-70
2023/04/20 04:40:52;;;;;;;3.50;1.30;;;8.10;42.40;;;;;;5004971;28;20649;-70
2023/04/20 04:43:18;;;;;;;6.15;3.50;;;8.20;42.50;;;;;;5013284;28;20208;-70
2023/04/20 04:45:44;;;;;;;4.90;2.05;;;8.20;42.70;;;;;;5008581;28;20719;-70
2023/04/20 04:48:11;;;;;;;3.60;1.70;;;8.30;42.60;;;;;;4996706;28;20264;-70
2023/04/20 04:50:37;;;;;;;4.05;1.75;;;8.20;41.90;;;;;;4998918;28;20440;-70
2023/04/20 04:53:03;;;;;;;3.40;1.42;;;8.20;42.40;;;;;;5019432;28;20204;-70
2023/04/20 04:55:29;;;;;;;3.20;1.20;;;8.00;42.60;;;;;;5018376;28;20185;-70
2023/04/20 04:57:56;;;;;;;3.10;1.17;;;7.90;43.10;;;;;;5017174;28;20181;-70
2023/04/20 05:00:22;;;;;;;3.20;1.20;;;8.10;42.90;;;;;;5013365;28;20181;-69
2023/04/20 05:02:48;;;;;;;3.30;1.40;;;8.20;41.70;;;;;;5013186;28;20208;-70
2023/04/20 05:05:13;;;;;;;3.40;1.50;;;7.90;41.90;;;;;;5018565;28;20843;-69
2023/04/20 05:07:39;;;;;;;5.73;2.43;;;7.90;41.90;;;;;;5020262;28;20196;-70
2023/04/20 05:10:06;;;;;;;3.70;1.60;;;7.90;43.20;;;;;;5019120;28;20184;-70
2023/04/20 05:12:32;;;;;;;3.80;1.70;;;7.80;42.90;;;;;;5013898;28;20995;-70
2023/04/20 05:14:57;;;;;;;3.37;1.33;;;7.90;43.10;;;;;;5019218;28;20247;-69
2023/04/20 05:17:23;;;;;;;5.20;1.97;;;7.90;41.40;;;;;;5017372;28;20188;-70
2023/04/20 05:19:49;;;;;;;4.27;1.87;;;8.00;41.90;;;;;;5009176;28;20665;-70
2023/04/20 05:22:14;;;;;;;7.13;2.00;;;8.20;41.10;;;;;;5012066;28;20189;-76
2023/04/20 05:24:41;;;;;;;3.30;1.37;;;8.40;40.60;;;;;;5018729;28;20205;-69
2023/04/20 05:27:07;;;;;;;4.30;2.33;;;8.40;40.50;;;;;;5012343;28;20174;-70
2023/04/20 05:29:33;;;;;;;4.50;2.35;;;8.30;40.70;;;;;;5016570;28;20181;-70
2023/04/20 05:31:59;;;;;;;3.40;1.33;;;8.40;40.90;;;;;;5010060;28;20196;-70
2023/04/20 05:34:25;;;;;;;3.80;1.67;;;8.30;41.50;;;;;;5011235;28;20207;-70
2023/04/20 05:36:51;;;;;;;3.30;1.27;;;8.50;41.60;;;;;;4999870;28;20470;-70
2023/04/20 05:39:17;;;;;;;5.25;2.25;;;8.50;41.30;;;;;;5019272;28;20181;-70
2023/04/20 05:41:43;;;;;;;3.80;1.70;;;8.50;40.20;;;;;;5011868;28;20744;-70
2023/04/20 05:44:08;;;;;;;3.60;1.40;;;8.50;40.00;;;;;;5008635;28;20212;-73
2023/04/20 05:46:34;;;;;;;3.47;1.40;;;8.70;40.30;;;;;;5018871;28;20267;-76
2023/04/20 05:48:59;;;;;;;3.50;1.43;;;8.80;39.90;;;;;;5015649;28;20227;-76
2023/04/20 05:51:29;;;;;;;5.00;2.27;;;8.80;40.00;;;;;;5021664;28;20186;-76
2023/04/20 05:53:54;;;;;;;4.78;2.08;;;8.70;40.00;;;;;;5023870;28;20195;-77
2023/04/20 05:56:20;;;;;;;4.43;1.77;;;8.50;40.40;;;;;;5017255;28;20193;-76
2023/04/20 05:58:46;;;;;;;3.63;1.40;;;8.60;40.70;;;;;;5012420;28;20515;-76
2023/04/20 06:01:11;;;;;;;3.90;1.50;;;8.50;40.50;;;;;;5018615;28;20203;-76
2023/04/20 06:03:37;;;;;;;7.77;1.77;;;8.50;41.10;;;;;;5013577;28;20287;-75
2023/04/20 06:06:03;;;;;;;3.60;1.40;;;8.50;41.20;;;;;;5015713;28;20177;-75
2023/04/20 06:08:28;;;;;;;5.13;2.23;;;8.30;41.60;;;;;;5010863;28;20904;-68
2023/04/20 06:10:55;;;;;;;12.43;2.07;;;8.40;42.40;;;;;;5014109;28;20177;-69
2023/04/20 06:13:20;;;;;;;4.68;1.50;;;8.60;41.90;;;;;;5013700;28;20197;-69
2023/04/20 06:15:46;;;;;;;4.10;1.80;;;8.60;40.70;;;;;;5012446;28;20182;-68
2023/04/20 06:18:11;;;;;;;4.10;1.93;;;8.60;42.60;;;;;;5012174;28;20637;-72
2023/04/20 06:20:38;;;;;;;5.10;2.33;;;8.70;41.50;;;;;;5010948;28;20624;-70
2023/04/20 06:23:04;;;;;;;5.28;2.00;;;8.60;41.80;;;;;;5013119;28;20577;-69
2023/04/20 06:25:29;;;;;;;4.57;1.70;;;8.80;40.60;;;;;;5019986;28;20209;-71
2023/04/20 06:27:55;;;;;;;5.43;2.43;;;8.90;41.50;;;;;;5026356;28;20204;-68
2023/04/20 06:30:21;;;;;;;5.80;1.90;;;9.00;41.30;;;;;;5011730;28;20186;-68
2023/04/20 06:32:47;;;;;;;4.37;1.83;;;8.80;40.80;;;;;;5018809;28;20200;-68
2023/04/20 06:35:12;;;;;;;4.00;1.73;;;9.00;42.00;;;;;;5008227;28;20281;-68
2023/04/20 06:37:39;;;;;;;3.50;1.20;;;9.20;41.10;;;;;;5017899;28;20204;-69
2023/04/20 06:40:08;;;;;;;3.63;1.35;;;8.70;41.20;;;;;;5031445;28;20230;-69
2023/04/20 06:42:35;;;;;;;4.10;1.80;;;8.40;42.70;;;;;;5014107;28;20217;-70
2023/04/20 06:45:00;;;;;;;4.45;1.88;;;8.30;42.70;;;;;;5013553;28;20725;-68
2023/04/20 06:47:30;;;;;;;4.30;1.77;;;8.10;43.50;;;;;;5007424;28;20220;-69
2023/04/20 06:49:57;;;;;;;4.68;1.63;;;7.60;44.00;;;;;;5019299;28;20173;-68
2023/04/20 06:52:23;;;;;;;4.18;1.90;;;7.90;46.90;;;;;;5015976;28;20173;-68
2023/04/20 06:54:48;;;;;;;3.90;1.50;;;8.20;44.90;;;;;;5004652;28;20204;-69
2023/04/20 06:57:14;;;;;;;4.67;1.97;;;8.50;42.80;;;;;;5024384;28;20179;-68
2023/04/20 06:59:40;;;;;;;4.33;1.73;;;8.40;42.60;;;;;;5033292;28;20173;-68
2023/04/20 07:02:06;;;;;;;4.30;1.73;;;9.80;44.00;;;;;;5007860;28;20707;-68
2023/04/20 07:04:31;;;;;;;4.88;2.33;;;8.80;42.40;;;;;;5013158;28;20499;-70
2023/04/20 07:06:57;;;;;;;3.80;1.53;;;9.30;40.00;;;;;;5015503;28;20185;-73
2023/04/20 07:09:23;;;;;;;6.20;2.07;;;9.60;40.80;;;;;;5032826;28;20242;-71
2023/04/20 07:11:49;;;;;;;4.75;1.90;;;9.50;40.50;;;;;;5011853;28;20669;-68
2023/04/20 07:14:15;;;;;;;4.72;2.00;;;9.80;38.80;;;;;;5018945;28;20577;-70
2023/04/20 07:16:41;;;;;;;4.50;1.70;;;10.00;36.40;;;;;;5005620;28;20185;-68
2023/04/20 07:19:06;;;;;;;4.83;1.73;;;10.10;36.50;;;;;;5013021;28;20186;-74
2023/04/20 07:21:32;;;;;;;3.80;1.47;;;10.00;36.90;;;;;;5013108;28;20261;-67
2023/04/20 07:23:58;;;;;;;4.10;1.57;;;9.90;37.90;;;;;;5010329;28;20205;-68
2023/04/20 07:26:24;;;;;;;3.80;1.70;;;9.70;38.60;;;;;;5012020;28;20507;-68
2023/04/20 07:28:50;;;;;;;4.97;1.80;;;9.50;39.20;;;;;;5018034;28;20173;-71
2023/04/20 07:31:16;;;;;;;4.97;2.00;;;9.40;39.60;;;;;;5021865;28;20188;-73
2023/04/20 07:33:42;;;;;;;6.43;2.43;;;9.40;40.20;;;;;;5019423;28;20228;-71
2023/04/20 07:36:08;;;;;;;4.40;1.55;;;9.10;39.30;;;;;;5015260;28;20511;-72
2023/04/20 07:38:34;;;;;;;4.70;2.07;;;9.00;39.40;;;;;;5015038;28;20843;-71
2023/04/20 07:41:00;;;;;;;5.73;1.97;;;8.90;39.60;;;;;;5026856;28;20414;-71
2023/04/20 07:43:25;;;;;;;4.10;1.47;;;8.40;41.60;;;;;;5020027;28;20219;-69
2023/04/20 07:45:51;;;;;;;4.30;1.63;;;8.50;42.40;;;;;;5019999;28;20181;-72
2023/04/20 07:48:17;;;;;;;3.80;1.30;;;8.60;41.70;;;;;;5005156;28;20185;-71
2023/04/20 07:50:42;;;;;;;4.93;2.13;;;8.80;41.50;;;;;;5023886;28;20185;-71
2023/04/20 07:53:08;;;;;;;4.77;2.00;;;9.00;41.00;;;;;;5016812;28;20212;-72
2023/04/20 07:55:33;;;;;;;3.90;1.40;;;9.30;41.20;;;;;;5010838;28;20209;-71
2023/04/20 07:58:02;;;;;;;5.53;2.57;;;9.60;40.60;;;;;;5012666;28;20247;-72
2023/04/20 08:00:28;;;;;;;4.88;2.08;;;9.90;38.70;;;;;;5017877;28;20215;-70
2023/04/20 08:02:53;;;;;;;4.03;1.60;;;9.90;39.60;;;;;;5028386;28;20228;-71
2023/04/20 08:05:19;;;;;;;3.70;1.23;;;9.80;39.50;;;;;;5035045;28;20462;-72
2023/04/20 08:07:45;;;;;;;4.80;1.83;;;9.70;39.00;;;;;;5024541;28;20283;-69
2023/04/20 08:10:11;;;;;;;4.40;1.50;;;9.90;39.60;;;;;;5020555;28;20930;-72
2023/04/20 08:12:38;;;;;;;4.57;2.00;;;8.90;41.20;;;;;;5033274;28;20611;-70
2023/04/20 08:15:05;;;;;;;5.97;2.50;;;9.10;40.00;;;;;;5020782;28;20186;-71
2023/04/20 08:17:34;;;;;;;3.80;1.27;;;9.20;39.90;;;;;;5014547;28;20271;-72
2023/04/20 08:20:00;;;;;;;9.05;1.83;;;9.50;40.40;;;;;;5018583;28;20238;-72
2023/04/20 08:22:28;;;;;;;3.80;1.40;;;9.70;39.60;;;;;;5014031;28;20659;-71
2023/04/20 08:24:55;;;;;;;5.00;2.55;;;9.50;39.40;;;;;;5010376;28;20457;-72
2023/04/20 08:27:21;;;;;;;7.03;2.28;;;9.40;40.40;;;;;;5009708;28;20184;-70
2023/04/20 08:29:46;;;;;;;4.10;1.60;;;9.40;40.20;;;;;;5020041;28;20564;-67
2023/04/20 08:32:12;;;;;;;4.33;1.87;;;9.60;40.10;;;;;;5008482;28;20277;-71
2023/04/20 08:34:38;;;;;;;4.47;1.83;;;10.10;38.90;;;;;;5015545;28;20667;-71
2023/04/20 08:37:04;;;;;;;5.70;2.27;;;9.60;38.70;;;;;;5030715;28;20195;-71
2023/04/20 08:39:30;;;;;;;4.50;1.50;;;10.00;38.70;;;;;;5025763;28;20433;-71
2023/04/20 08:41:57;;;;;;;5.57;2.20;;;10.30;38.00;;;;;;5019781;28;20688;-71
2023/04/20 08:44:23;;;;;;;4.40;1.60;;;10.40;36.70;;;;;;5016665;28;20212;-70
2023/04/20 08:46:50;;;;;;;7.03;2.72;;;10.50;37.30;;;;;;5028421;28;20187;-70
2023/04/20 08:49:17;;;;;;;4.10;1.50;;;10.50;37.30;;;;;;5017203;28;20585;-70
2023/04/20 08:51:43;;;;;;;6.05;2.10;;;9.70;40.50;;;;;;5021168;28;20199;-70
2023/04/20 08:54:10;;;;;;;4.50;1.63;;;9.80;40.50;;;;;;5027162;28;20814;-69
2023/04/20 08:56:38;;;;;;;4.45;1.65;;;10.50;39.40;;;;;;5016491;28;20685;-70
2023/04/20 08:59:04;;;;;;;4.40;1.70;;;10.80;38.70;;;;;;5035470;28;20188;-69
2023/04/20 09:01:31;;;;;;;4.45;1.75;;;10.80;35.60;;;;;;5036083;28;20275;-70
2023/04/20 09:03:59;;;;;;;4.60;1.60;;;11.00;37.30;;;;;;5024153;28;20214;-69
2023/04/20 09:06:25;;;;;;;4.90;2.00;;;11.30;35.90;;;;;;5023624;28;20466;-69
2023/04/20 09:08:51;;;;;;;6.22;2.05;;;10.90;36.00;;;;;;5022863;28;20491;-69
2023/04/20 09:11:24;;;;;;;5.70;1.97;;;10.90;37.10;;;;;;5022606;28;20635;-69
2023/04/20 09:14:16;;;;;;;4.53;1.52;;;11.20;37.00;;;;;;5026449;28;20455;-69
2023/04/20 09:16:49;;;;;;;4.30;1.50;;;11.30;36.00;;;;;;5025131;28;20204;-69
2023/04/20 09:19:21;;;;;;;4.07;1.33;;;11.10;36.90;;;;;;5010080;28;20184;-69
2023/04/20 09:21:51;;;;;;;5.57;2.50;;;10.90;37.60;;;;;;5020689;28;20213;-69
2023/04/20 09:24:19;;;;;;;4.70;1.50;;;11.10;36.50;;;;;;5012946;28;20327;-69
2023/04/20 09:26:46;;;;;;;4.30;1.45;;;11.30;37.60;;;;;;5008763;28;20436;-69
2023/04/20 09:29:18;;;;;;;4.82;1.73;;;11.00;36.00;;;;;;5016040;28;20303;-66
2023/04/20 09:31:44;;;;;;;4.13;1.27;;;10.70;37.30;;;;;;5022735;28;20177;-70
2023/04/20 09:34:11;;;;;;;4.70;1.50;;;10.70;38.80;;;;;;5021399;28;20454;-69
2023/04/20 09:36:42;;;;;;;4.40;1.60;;;11.30;38.60;;;;;;5021381;28;20192;-67
2023/04/20 09:39:11;;;;;;;5.77;2.07;;;12.10;38.10;;;;;;5021415;28;20857;-69
2023/04/20 09:41:39;;;;;;;6.17;2.53;;;11.90;37.60;;;;;;5023716;28;20435;-69
2023/04/20 09:44:05;;;;;;;5.53;2.23;;;11.90;36.90;;;;;;5024662;28;20471;-69
2023/04/20 09:46:33;;;;;;;4.77;1.60;;;11.90;36.50;;;;;;5034295;28;20445;-69
2023/04/20 09:49:02;;;;;;;5.53;2.50;;;11.70;37.10;;;;;;5013903;28;20515;-69
2023/04/20 09:51:28;;;;;;;5.33;1.93;;;12.00;37.20;;;;;;5021192;28;20481;-70
2023/04/20 09:54:00;;;;;;;4.77;1.57;;;11.80;37.40;;;;;;5013192;28;20459;-69
2023/04/20 09:56:26;;;;;;;5.30;2.20;;;11.80;37.60;;;;;;5025724;28;20431;-69
2023/04/20 09:58:53;;;;;;;4.90;1.57;;;11.90;39.20;;;;;;5014896;28;20432;-69
2023/04/20 10:01:21;;;;;;;4.60;1.60;;;12.20;39.50;;;;;;5017603;28;21021;-67
2023/04/20 10:03:47;;;;;;;4.50;1.40;;;12.30;37.70;;;;;;5007043;28;20473;-69
2023/04/20 10:06:20;;;;;;;5.40;1.73;;;12.30;36.40;;;;;;5015437;28;20436;-70
2023/04/20 10:08:47;;;;;;;5.47;2.20;;;12.20;37.60;;;;;;5007524;28;20467;-69
2023/04/20 10:11:23;;;;;;;4.60;1.50;;;12.40;36.80;;;;;;5005730;28;20488;-65
2023/04/20 10:13:49;;;;;;;5.50;2.27;;;12.50;38.20;;;;;;5016372;28;20454;-65
2023/04/20 10:16:19;;;;;;;4.60;1.50;;;12.70;38.30;;;;;;5007162;28;20452;-69
2023/04/20 10:19:02;;;;;;;9.20;3.23;;;12.50;39.50;;;;;;5020551;28;20432;-69
2023/04/20 10:21:31;;;;;;;4.40;1.50;;;12.10;38.40;;;;;;5011875;28;20487;-69
2023/04/20 10:23:59;;;;;;;6.57;3.03;;;12.30;38.40;;;;;;5010579;28;20467;-69
2023/04/20 10:26:37;;;;;;;7.17;3.03;;;12.60;38.80;;;;;;5019060;28;20431;-69
2023/04/20 10:29:03;;;;;;;5.90;2.33;;;12.10;39.90;;;;;;5032276;28;20422;-70
2023/04/20 10:31:37;;;;;;;4.80;1.57;;;12.20;40.70;;;;;;5032400;28;20411;-70
2023/04/20 10:34:03;;;;;;;5.80;2.40;;;12.50;40.60;;;;;;5032650;28;20193;-69
2023/04/20 10:36:30;;;;;;;5.07;1.57;;;12.40;40.00;;;;;;5032689;28;20552;-69
2023/04/20 10:38:57;;;;;;;5.60;2.30;;;12.50;39.00;;;;;;5032731;28;20809;-68
2023/04/20 10:41:23;;;;;;;5.23;1.77;;;12.80;41.00;;;;;;5033020;28;20464;-70
2023/04/20 10:43:49;;;;;;;5.80;2.43;;;13.20;41.00;;;;;;5032423;28;20908;-69
2023/04/20 10:46:20;;;;;;;6.37;2.43;;;13.40;39.90;;;;;;5031171;28;20173;-69
2023/04/20 10:48:55;;;;;;;4.50;1.50;;;13.20;40.20;;;;;;5032491;28;20196;-70
2023/04/20 10:51:21;;;;;;;4.60;1.80;;;13.40;40.70;;;;;;5032559;28;20921;-69
2023/04/20 10:53:57;;;;;;;4.83;2.10;;;13.90;40.00;;;;;;5032790;28;20432;-69
2023/04/20 10:56:23;;;;;;;4.77;2.07;;;14.10;39.30;;;;;;5032812;28;20788;-69
2023/04/20 10:58:49;;;;;;;4.27;1.70;;;13.70;38.10;;;;;;5032399;28;20490;-69
2023/04/20 11:01:15;;;;;;;3.87;1.57;;;13.20;40.30;;;;;;5032830;28;20416;-69
2023/04/20 11:03:40;;;;;;;3.73;1.53;;;13.30;39.40;;;;;;5031041;28;20237;-69
2023/04/20 11:06:06;;;;;;;6.80;2.70;;;13.60;37.70;;;;;;5033393;28;20518;-69
2023/04/20 11:08:39;;;;;;;3.50;1.57;;;13.80;37.40;;;;;;5032388;28;20687;-69
2023/04/20 11:11:16;;;;;;;3.90;1.80;;;14.20;36.70;;;;;;5033401;28;20256;-69
2023/04/20 11:13:41;;;;;;;3.40;1.57;;;14.80;37.60;;;;;;5033256;28;20454;-70
2023/04/20 11:16:12;;;;;;;3.10;1.47;;;15.10;34.50;;;;;;5033594;28;20413;-69
2023/04/20 11:18:51;;;;;;;3.20;1.70;;;14.30;35.60;;;;;;5032595;28;20538;-69
2023/04/20 11:21:17;;;;;;;3.53;1.60;;;14.70;34.20;;;;;;5033291;28;20490;-69
2023/04/20 11:23:43;;;;;;;2.93;1.33;;;14.50;35.80;;;;;;5032238;28;20438;-70
2023/04/20 11:26:09;;;;;;;5.33;1.50;;;14.70;35.00;;;;;;5032620;28;20438;-69
2023/04/20 11:28:35;;;;;;;3.00;1.30;;;14.50;36.10;;;;;;5032626;28;20406;-69
2023/04/20 11:31:01;;;;;;;3.47;1.50;;;14.10;34.80;;;;;;5033842;28;20924;-70
2023/04/20 11:33:28;;;;;;;9.03;2.47;;;14.10;36.30;;;;;;5037200;28;20735;-69
2023/04/20 11:35:58;;;;;;;3.10;1.33;;;13.80;37.10;;;;;;5036350;28;20185;-68
2023/04/20 11:38:28;;;;;;;3.67;1.40;;;13.70;36.10;;;;;;5036387;28;20865;-69
2023/04/20 11:40:54;;;;;;;3.10;1.20;;;13.90;36.70;;;;;;5036458;28;20408;-69
2023/04/20 11:43:20;;;;;;;3.70;1.90;;;13.80;34.50;;;;;;5034339;28;20466;-69
2023/04/20 11:45:46;;;;;;;3.17;1.27;;;13.70;35.80;;;;;;5035980;28;20455;-70
2023/04/20 11:48:12;;;;;;;3.00;1.20;;;13.70;34.60;;;;;;5036196;28;20487;-69
2023/04/20 11:50:37;;;;;;;3.00;1.13;;;13.50;34.60;;;;;;5033864;28;20267;-69
2023/04/20 11:53:04;;;;;;;3.00;1.20;;;13.40;37.10;;;;;;5035615;28;20272;-69
2023/04/20 11:55:30;;;;;;;3.13;1.27;;;13.50;37.10;;;;;;5035313;28;20165;-69
2023/04/20 11:57:55;;;;;;;3.10;1.20;;;13.60;36.60;;;;;;5034708;28;20777;-69
2023/04/20 12:00:21;;;;;;;3.23;1.40;;;13.50;35.90;;;;;;5035679;28;20608;-69
2023/04/20 12:02:47;;;;;;;3.40;1.50;;;13.50;36.10;;;;;;5035967;28;20707;-69
2023/04/20 12:05:12;;;;;;;3.57;1.70;;;13.40;36.00;;;;;;5035773;28;20816;-69
2023/04/20 12:07:38;;;;;;;3.10;1.10;;;13.30;38.00;;;;;;5035788;28;20172;-66
2023/04/20 12:10:05;;;;;;;3.23;1.30;;;12.90;35.70;;;;;;5035252;28;20169;-69
2023/04/20 12:12:31;;;;;;;4.33;1.70;;;12.60;38.40;;;;;;5035162;28;20208;-69
2023/04/20 12:14:56;;;;;;;3.20;1.17;;;13.10;38.60;;;;;;5035388;28;20406;-68
2023/04/20 12:17:22;;;;;;;3.40;1.47;;;13.00;36.70;;;;;;5035492;28;20552;-69
2023/04/20 12:19:48;;;;;;;3.40;1.30;;;12.90;35.00;;;;;;5035659;28;20169;-69
2023/04/20 12:22:13;;;;;;;3.10;1.20;;;13.10;36.50;;;;;;5035333;28;20572;-69
2023/04/20 12:24:39;;;;;;;3.10;1.20;;;12.90;35.90;;;;;;5034690;28;20283;-68
2023/04/20 12:27:04;;;;;;;3.20;1.20;;;12.80;37.10;;;;;;5035558;28;20173;-69
2023/04/20 12:29:31;;;;;;;3.20;1.33;;;12.60;37.80;;;;;;5033763;28;20268;-69
2023/04/20 12:31:57;;;;;;;3.20;1.20;;;12.40;38.90;;;;;;5035534;28;20169;-68
2023/04/20 12:34:23;;;;;;;3.30;1.30;;;12.40;39.80;;;;;;5033105;28;20857;-68
2023/04/20 12:36:49;;;;;;;3.40;1.40;;;12.30;39.70;;;;;;5035191;28;20447;-69
2023/04/20 12:39:14;;;;;;;3.40;1.40;;;12.40;40.80;;;;;;5033186;28;20180;-69
2023/04/20 12:41:40;;;;;;;3.30;1.30;;;12.30;41.10;;;;;;5033979;28;20173;-69
2023/04/20 12:44:06;;;;;;;3.40;1.20;;;12.40;40.70;;;;;;5033224;28;20585;-69
2023/04/20 12:46:32;;;;;;;3.70;1.60;;;12.70;38.90;;;;;;5034668;28;20428;-69
2023/04/20 12:48:57;;;;;;;3.20;1.20;;;12.40;39.30;;;;;;5034719;28;20196;-69